sensor_id;sensor_type;location;lat;lon;timestamp;P1;durP1;ratioP1;P2;durP2;ratioP2
59271;SDS011;45043;51.068;7.026;2022-09-29T00:01:44;10.73;;;6.83;;
59271;SDS011;45043;51.068;7.026;2022-09-29T00:04:44;7.33;;;6.63;;
59271;SDS011;45043;51.068;7.026;2022-09-29T00:07:45;7.93;;;7.13;;
59271;SDS011;45043;51.068;7.026;2022-09-29T00:10:45;8.07;;;7.27;;
59271;SDS011;45043;51.068;7.026;2022-09-29T00:13:46;10.23;;;6.90;;
59271;SDS011;45043;51.068;7.026;2022-09-29T00:16:47;7.60;;;6.90;;
59271;SDS011;45043;51.068;7.026;2022-09-29T00:19:48;8.07;;;6.27;;
59271;SDS011;45043;51.068;7.026;2022-09-29T00:22:49;7.87;;;7.07;;
59271;SDS011;45043;51.068;7.026;2022-09-29T00:26:07;8.13;;;6.57;;
59271;SDS011;45043;51.068;7.026;2022-09-29T00:29:18;8.03;;;7.23;;
59271;SDS011;45043;51.068;7.026;2022-09-29T00:32:18;9.27;;;8.23;;
59271;SDS011;45043;51.068;7.026;2022-09-29T00:35:19;8.37;;;6.77;;
59271;SDS011;45043;51.068;7.026;2022-09-29T00:38:19;8.57;;;6.97;;
59271;SDS011;45043;51.068;7.026;2022-09-29T00:41:21;9.30;;;6.90;;
59271;SDS011;45043;51.068;7.026;2022-09-29T00:47:24;9.47;;;7.10;;
59271;SDS011;45043;51.068;7.026;2022-09-29T00:50:44;7.93;;;6.47;;
59271;SDS011;45043;51.068;7.026;2022-09-29T00:53:49;7.87;;;6.97;;
59271;SDS011;45043;51.068;7.026;2022-09-29T00:56:49;7.43;;;6.53;;
59271;SDS011;45043;51.068;7.026;2022-09-29T01:02:59;7.37;;;6.67;;
59271;SDS011;45043;51.068;7.026;2022-09-29T01:06:07;7.77;;;6.83;;
59271;SDS011;45043;51.068;7.026;2022-09-29T01:09:13;7.10;;;6.33;;
59271;SDS011;45043;51.068;7.026;2022-09-29T01:12:16;8.63;;;7.33;;
59271;SDS011;45043;51.068;7.026;2022-09-29T01:15:18;8.70;;;7.37;;
59271;SDS011;45043;51.068;7.026;2022-09-29T01:18:20;8.80;;;6.93;;
59271;SDS011;45043;51.068;7.026;2022-09-29T01:24:54;7.40;;;6.70;;
59271;SDS011;45043;51.068;7.026;2022-09-29T01:31:55;9.57;;;7.53;;
59271;SDS011;45043;51.068;7.026;2022-09-29T01:35:11;9.50;;;7.10;;
59271;SDS011;45043;51.068;7.026;2022-09-29T01:41:35;7.63;;;6.93;;
59271;SDS011;45043;51.068;7.026;2022-09-29T01:44:49;8.07;;;7.30;;
59271;SDS011;45043;51.068;7.026;2022-09-29T01:47:56;8.33;;;7.53;;
59271;SDS011;45043;51.068;7.026;2022-09-29T01:51:03;8.40;;;7.33;;
59271;SDS011;45043;51.068;7.026;2022-09-29T01:54:16;8.90;;;7.70;;
59271;SDS011;45043;51.068;7.026;2022-09-29T01:58:06;8.33;;;7.27;;
59271;SDS011;45043;51.068;7.026;2022-09-29T02:00:52;7.67;;;6.97;;
59271;SDS011;45043;51.068;7.026;2022-09-29T02:03:56;9.27;;;6.93;;
59271;SDS011;45043;51.068;7.026;2022-09-29T02:07:05;7.80;;;7.10;;
59271;SDS011;45043;51.068;7.026;2022-09-29T02:10:12;8.33;;;7.53;;
59271;SDS011;45043;51.068;7.026;2022-09-29T02:13:14;8.50;;;7.70;;
59271;SDS011;45043;51.068;7.026;2022-09-29T02:16:19;8.57;;;7.57;;
59271;SDS011;45043;51.068;7.026;2022-09-29T02:19:25;7.83;;;7.13;;
59271;SDS011;45043;51.068;7.026;2022-09-29T02:22:30;8.57;;;7.67;;
59271;SDS011;45043;51.068;7.026;2022-09-29T02:25:32;8.40;;;7.60;;
59271;SDS011;45043;51.068;7.026;2022-09-29T02:28:35;8.67;;;7.80;;
59271;SDS011;45043;51.068;7.026;2022-09-29T02:31:36;12.07;;;7.67;;
59271;SDS011;45043;51.068;7.026;2022-09-29T02:34:38;8.80;;;8.00;;
59271;SDS011;45043;51.068;7.026;2022-09-29T02:38:04;8.87;;;7.97;;
59271;SDS011;45043;51.068;7.026;2022-09-29T02:41:28;9.40;;;8.50;;
59271;SDS011;45043;51.068;7.026;2022-09-29T02:44:48;9.47;;;8.50;;
59271;SDS011;45043;51.068;7.026;2022-09-29T02:51:20;9.80;;;8.80;;
59271;SDS011;45043;51.068;7.026;2022-09-29T02:54:59;9.23;;;8.33;;
59271;SDS011;45043;51.068;7.026;2022-09-29T02:58:12;10.03;;;9.13;;
59271;SDS011;45043;51.068;7.026;2022-09-29T03:01:17;10.30;;;9.40;;
59271;SDS011;45043;51.068;7.026;2022-09-29T03:04:18;10.00;;;9.00;;
59271;SDS011;45043;51.068;7.026;2022-09-29T03:07:21;10.47;;;9.57;;
59271;SDS011;45043;51.068;7.026;2022-09-29T03:10:22;10.03;;;9.13;;
59271;SDS011;45043;51.068;7.026;2022-09-29T03:13:22;10.57;;;9.57;;
59271;SDS011;45043;51.068;7.026;2022-09-29T03:16:22;10.47;;;9.57;;
59271;SDS011;45043;51.068;7.026;2022-09-29T03:19:23;11.07;;;9.30;;
59271;SDS011;45043;51.068;7.026;2022-09-29T03:22:24;11.60;;;10.47;;
59271;SDS011;45043;51.068;7.026;2022-09-29T03:25:24;10.87;;;9.70;;
59271;SDS011;45043;51.068;7.026;2022-09-29T03:28:25;9.63;;;8.73;;
59271;SDS011;45043;51.068;7.026;2022-09-29T03:31:25;11.43;;;10.33;;
59271;SDS011;45043;51.068;7.026;2022-09-29T03:34:26;11.67;;;10.57;;
59271;SDS011;45043;51.068;7.026;2022-09-29T03:37:26;10.67;;;9.77;;
59271;SDS011;45043;51.068;7.026;2022-09-29T03:40:26;11.93;;;10.43;;
59271;SDS011;45043;51.068;7.026;2022-09-29T03:43:27;12.97;;;10.77;;
59271;SDS011;45043;51.068;7.026;2022-09-29T03:46:27;11.97;;;10.70;;
59271;SDS011;45043;51.068;7.026;2022-09-29T03:49:28;11.20;;;10.10;;
59271;SDS011;45043;51.068;7.026;2022-09-29T03:52:28;11.13;;;10.10;;
59271;SDS011;45043;51.068;7.026;2022-09-29T03:55:29;11.80;;;10.50;;
59271;SDS011;45043;51.068;7.026;2022-09-29T03:58:29;12.20;;;11.00;;
59271;SDS011;45043;51.068;7.026;2022-09-29T04:01:30;11.67;;;10.13;;
59271;SDS011;45043;51.068;7.026;2022-09-29T04:04:31;13.63;;;11.03;;
59271;SDS011;45043;51.068;7.026;2022-09-29T04:07:31;11.30;;;10.10;;
59271;SDS011;45043;51.068;7.026;2022-09-29T04:10:35;12.10;;;10.90;;
59271;SDS011;45043;51.068;7.026;2022-09-29T04:13:36;11.27;;;10.27;;
59271;SDS011;45043;51.068;7.026;2022-09-29T04:16:36;11.00;;;9.87;;
59271;SDS011;45043;51.068;7.026;2022-09-29T04:19:37;11.60;;;10.33;;
59271;SDS011;45043;51.068;7.026;2022-09-29T04:22:38;11.00;;;10.00;;
59271;SDS011;45043;51.068;7.026;2022-09-29T04:25:38;10.40;;;9.47;;
59271;SDS011;45043;51.068;7.026;2022-09-29T04:28:39;11.30;;;10.10;;
59271;SDS011;45043;51.068;7.026;2022-09-29T04:31:39;11.30;;;10.13;;
59271;SDS011;45043;51.068;7.026;2022-09-29T04:34:40;10.50;;;9.40;;
59271;SDS011;45043;51.068;7.026;2022-09-29T04:37:40;9.70;;;8.80;;
59271;SDS011;45043;51.068;7.026;2022-09-29T04:40:40;10.60;;;9.60;;
59271;SDS011;45043;51.068;7.026;2022-09-29T04:43:41;11.20;;;10.10;;
59271;SDS011;45043;51.068;7.026;2022-09-29T04:46:41;11.03;;;10.07;;
59271;SDS011;45043;51.068;7.026;2022-09-29T04:49:42;10.80;;;9.80;;
59271;SDS011;45043;51.068;7.026;2022-09-29T04:52:42;11.13;;;10.13;;
59271;SDS011;45043;51.068;7.026;2022-09-29T04:55:43;10.90;;;8.50;;
59271;SDS011;45043;51.068;7.026;2022-09-29T04:58:43;10.83;;;9.03;;
59271;SDS011;45043;51.068;7.026;2022-09-29T05:01:44;7.47;;;6.87;;
59271;SDS011;45043;51.068;7.026;2022-09-29T05:04:45;7.93;;;7.23;;
59271;SDS011;45043;51.068;7.026;2022-09-29T05:07:46;8.10;;;7.07;;
59271;SDS011;45043;51.068;7.026;2022-09-29T05:10:47;7.03;;;6.33;;
59271;SDS011;45043;51.068;7.026;2022-09-29T05:13:50;6.90;;;6.30;;
59271;SDS011;45043;51.068;7.026;2022-09-29T05:16:52;8.70;;;6.17;;
59271;SDS011;45043;51.068;7.026;2022-09-29T05:19:53;6.77;;;6.00;;
59271;SDS011;45043;51.068;7.026;2022-09-29T05:22:56;7.30;;;6.70;;
59271;SDS011;45043;51.068;7.026;2022-09-29T05:26:03;6.37;;;5.63;;
59271;SDS011;45043;51.068;7.026;2022-09-29T05:29:05;9.00;;;6.73;;
59271;SDS011;45043;51.068;7.026;2022-09-29T05:32:06;8.60;;;6.13;;
59271;SDS011;45043;51.068;7.026;2022-09-29T05:35:06;6.37;;;5.77;;
59271;SDS011;45043;51.068;7.026;2022-09-29T05:38:07;6.33;;;5.40;;
59271;SDS011;45043;51.068;7.026;2022-09-29T05:41:11;6.83;;;6.23;;
59271;SDS011;45043;51.068;7.026;2022-09-29T05:44:12;6.83;;;6.23;;
59271;SDS011;45043;51.068;7.026;2022-09-29T05:47:13;9.10;;;6.47;;
59271;SDS011;45043;51.068;7.026;2022-09-29T05:50:13;7.73;;;6.83;;
59271;SDS011;45043;51.068;7.026;2022-09-29T05:53:13;7.67;;;7.03;;
59271;SDS011;45043;51.068;7.026;2022-09-29T05:56:15;9.47;;;6.80;;
59271;SDS011;45043;51.068;7.026;2022-09-29T05:59:20;11.33;;;7.40;;
59271;SDS011;45043;51.068;7.026;2022-09-29T06:02:21;9.03;;;7.40;;
59271;SDS011;45043;51.068;7.026;2022-09-29T06:05:21;7.33;;;6.00;;
59271;SDS011;45043;51.068;7.026;2022-09-29T06:08:22;8.80;;;7.90;;
59271;SDS011;45043;51.068;7.026;2022-09-29T06:11:24;9.10;;;8.20;;
59271;SDS011;45043;51.068;7.026;2022-09-29T06:14:27;9.67;;;7.63;;
59271;SDS011;45043;51.068;7.026;2022-09-29T06:17:27;11.63;;;10.53;;
59271;SDS011;45043;51.068;7.026;2022-09-29T06:20:27;19.33;;;16.70;;
59271;SDS011;45043;51.068;7.026;2022-09-29T06:23:28;12.03;;;10.33;;
59271;SDS011;45043;51.068;7.026;2022-09-29T06:26:28;10.80;;;9.70;;
59271;SDS011;45043;51.068;7.026;2022-09-29T06:29:29;12.70;;;8.70;;
59271;SDS011;45043;51.068;7.026;2022-09-29T06:32:29;8.37;;;7.20;;
59271;SDS011;45043;51.068;7.026;2022-09-29T06:35:30;8.23;;;7.43;;
59271;SDS011;45043;51.068;7.026;2022-09-29T06:38:49;9.70;;;7.77;;
59271;SDS011;45043;51.068;7.026;2022-09-29T06:41:49;9.00;;;8.10;;
59271;SDS011;45043;51.068;7.026;2022-09-29T06:44:55;9.60;;;8.30;;
59271;SDS011;45043;51.068;7.026;2022-09-29T06:47:58;13.47;;;11.80;;
59271;SDS011;45043;51.068;7.026;2022-09-29T06:50:59;27.20;;;24.30;;
59271;SDS011;45043;51.068;7.026;2022-09-29T06:54:00;20.30;;;16.00;;
59271;SDS011;45043;51.068;7.026;2022-09-29T06:57:00;14.27;;;12.77;;
59271;SDS011;45043;51.068;7.026;2022-09-29T07:00:00;11.93;;;9.47;;
59271;SDS011;45043;51.068;7.026;2022-09-29T07:03:01;9.83;;;8.90;;
59271;SDS011;45043;51.068;7.026;2022-09-29T07:06:02;29.67;;;24.60;;
59271;SDS011;45043;51.068;7.026;2022-09-29T07:09:07;20.90;;;18.77;;
59271;SDS011;45043;51.068;7.026;2022-09-29T07:12:14;11.67;;;10.53;;
59271;SDS011;45043;51.068;7.026;2022-09-29T07:15:15;9.27;;;8.40;;
59271;SDS011;45043;51.068;7.026;2022-09-29T07:18:15;9.23;;;8.37;;
59271;SDS011;45043;51.068;7.026;2022-09-29T07:21:16;8.90;;;8.10;;
59271;SDS011;45043;51.068;7.026;2022-09-29T07:24:20;9.43;;;7.47;;
59271;SDS011;45043;51.068;7.026;2022-09-29T07:27:21;8.80;;;7.97;;
59271;SDS011;45043;51.068;7.026;2022-09-29T07:30:23;8.63;;;7.77;;
59271;SDS011;45043;51.068;7.026;2022-09-29T07:33:23;7.27;;;6.53;;
59271;SDS011;45043;51.068;7.026;2022-09-29T07:36:24;8.17;;;6.90;;
59271;SDS011;45043;51.068;7.026;2022-09-29T07:39:24;9.10;;;6.80;;
59271;SDS011;45043;51.068;7.026;2022-09-29T07:42:26;6.80;;;6.10;;
59271;SDS011;45043;51.068;7.026;2022-09-29T07:45:30;7.93;;;6.17;;
59271;SDS011;45043;51.068;7.026;2022-09-29T07:48:30;6.73;;;6.13;;
59271;SDS011;45043;51.068;7.026;2022-09-29T07:51:31;6.77;;;6.20;;
59271;SDS011;45043;51.068;7.026;2022-09-29T07:54:32;7.17;;;6.47;;
59271;SDS011;45043;51.068;7.026;2022-09-29T07:57:33;6.03;;;5.43;;
59271;SDS011;45043;51.068;7.026;2022-09-29T08:00:33;7.27;;;6.67;;
59271;SDS011;45043;51.068;7.026;2022-09-29T08:03:34;7.67;;;6.70;;
59271;SDS011;45043;51.068;7.026;2022-09-29T08:06:36;6.80;;;6.13;;
59271;SDS011;45043;51.068;7.026;2022-09-29T08:09:36;8.70;;;6.40;;
59271;SDS011;45043;51.068;7.026;2022-09-29T08:12:37;7.13;;;6.43;;
59271;SDS011;45043;51.068;7.026;2022-09-29T08:15:37;6.40;;;5.60;;
59271;SDS011;45043;51.068;7.026;2022-09-29T08:18:38;6.27;;;5.67;;
59271;SDS011;45043;51.068;7.026;2022-09-29T08:21:39;7.00;;;5.80;;
59271;SDS011;45043;51.068;7.026;2022-09-29T08:24:39;5.20;;;4.70;;
59271;SDS011;45043;51.068;7.026;2022-09-29T08:27:41;6.80;;;6.13;;
59271;SDS011;45043;51.068;7.026;2022-09-29T08:30:42;7.00;;;5.70;;
59271;SDS011;45043;51.068;7.026;2022-09-29T08:33:42;6.10;;;5.50;;
59271;SDS011;45043;51.068;7.026;2022-09-29T08:36:44;8.13;;;6.17;;
59271;SDS011;45043;51.068;7.026;2022-09-29T08:39:44;7.37;;;6.00;;
59271;SDS011;45043;51.068;7.026;2022-09-29T08:46:11;6.63;;;5.97;;
59271;SDS011;45043;51.068;7.026;2022-09-29T08:49:27;6.27;;;5.77;;
59271;SDS011;45043;51.068;7.026;2022-09-29T08:52:36;7.20;;;6.20;;
59271;SDS011;45043;51.068;7.026;2022-09-29T08:58:49;6.43;;;5.70;;
59271;SDS011;45043;51.068;7.026;2022-09-29T09:01:54;8.07;;;6.43;;
59271;SDS011;45043;51.068;7.026;2022-09-29T09:12:08;5.80;;;5.23;;
59271;SDS011;45043;51.068;7.026;2022-09-29T09:15:32;5.80;;;5.13;;
59271;SDS011;45043;51.068;7.026;2022-09-29T09:22:23;5.37;;;4.63;;
59271;SDS011;45043;51.068;7.026;2022-09-29T09:25:34;6.53;;;5.93;;
59271;SDS011;45043;51.068;7.026;2022-09-29T09:31:51;5.87;;;5.30;;
59271;SDS011;45043;51.068;7.026;2022-09-29T09:35:07;6.53;;;5.33;;
59271;SDS011;45043;51.068;7.026;2022-09-29T09:38:24;6.40;;;5.70;;
59271;SDS011;45043;51.068;7.026;2022-09-29T09:41:33;7.80;;;5.70;;
59271;SDS011;45043;51.068;7.026;2022-09-29T09:44:41;7.77;;;5.83;;
59271;SDS011;45043;51.068;7.026;2022-09-29T09:47:51;7.77;;;5.77;;
59271;SDS011;45043;51.068;7.026;2022-09-29T09:51:23;7.70;;;6.87;;
59271;SDS011;45043;51.068;7.026;2022-09-29T09:54:37;7.03;;;6.10;;
59271;SDS011;45043;51.068;7.026;2022-09-29T10:01:03;6.73;;;5.73;;
59271;SDS011;45043;51.068;7.026;2022-09-29T10:04:07;6.57;;;5.97;;
59271;SDS011;45043;51.068;7.026;2022-09-29T10:07:11;6.97;;;6.00;;
59271;SDS011;45043;51.068;7.026;2022-09-29T10:10:19;8.40;;;6.00;;
59271;SDS011;45043;51.068;7.026;2022-09-29T10:13:23;8.07;;;5.60;;
59271;SDS011;45043;51.068;7.026;2022-09-29T10:16:27;9.17;;;7.83;;
59271;SDS011;45043;51.068;7.026;2022-09-29T10:19:55;8.43;;;7.53;;
59271;SDS011;45043;51.068;7.026;2022-09-29T10:26:38;7.17;;;6.00;;
59271;SDS011;45043;51.068;7.026;2022-09-29T10:29:42;7.50;;;6.70;;
59271;SDS011;45043;51.068;7.026;2022-09-29T10:32:51;7.67;;;6.87;;
59271;SDS011;45043;51.068;7.026;2022-09-29T10:36:08;8.40;;;6.47;;
59271;SDS011;45043;51.068;7.026;2022-09-29T10:39:10;7.30;;;6.20;;
59271;SDS011;45043;51.068;7.026;2022-09-29T10:42:31;9.33;;;6.10;;
59271;SDS011;45043;51.068;7.026;2022-09-29T10:45:35;9.83;;;6.13;;
59271;SDS011;45043;51.068;7.026;2022-09-29T10:48:48;7.47;;;6.10;;
59271;SDS011;45043;51.068;7.026;2022-09-29T10:55:47;7.37;;;5.70;;
59271;SDS011;45043;51.068;7.026;2022-09-29T10:58:51;8.57;;;4.97;;
59271;SDS011;45043;51.068;7.026;2022-09-29T11:01:55;7.43;;;5.60;;
59271;SDS011;45043;51.068;7.026;2022-09-29T11:04:59;14.57;;;11.70;;
59271;SDS011;45043;51.068;7.026;2022-09-29T11:08:03;8.60;;;7.70;;
59271;SDS011;45043;51.068;7.026;2022-09-29T11:11:04;9.13;;;5.53;;
59271;SDS011;45043;51.068;7.026;2022-09-29T11:17:38;9.33;;;8.30;;
59271;SDS011;45043;51.068;7.026;2022-09-29T11:20:48;7.17;;;5.43;;
59271;SDS011;45043;51.068;7.026;2022-09-29T11:30:23;5.20;;;4.70;;
59271;SDS011;45043;51.068;7.026;2022-09-29T11:36:43;17.20;;;6.23;;
59271;SDS011;45043;51.068;7.026;2022-09-29T11:40:23;36.83;;;8.27;;
59271;SDS011;45043;51.068;7.026;2022-09-29T11:43:42;38.20;;;7.57;;
59271;SDS011;45043;51.068;7.026;2022-09-29T11:53:46;8.20;;;5.20;;
59271;SDS011;45043;51.068;7.026;2022-09-29T11:57:02;5.37;;;4.63;;
59271;SDS011;45043;51.068;7.026;2022-09-29T12:00:17;15.17;;;5.37;;
59271;SDS011;45043;51.068;7.026;2022-09-29T12:06:43;12.10;;;5.43;;
59271;SDS011;45043;51.068;7.026;2022-09-29T12:16:35;9.60;;;5.57;;
59271;SDS011;45043;51.068;7.026;2022-09-29T12:19:38;6.60;;;4.50;;
59271;SDS011;45043;51.068;7.026;2022-09-29T12:22:42;5.87;;;4.13;;
59271;SDS011;45043;51.068;7.026;2022-09-29T12:25:55;6.40;;;3.40;;
59271;SDS011;45043;51.068;7.026;2022-09-29T12:33:20;5.00;;;3.60;;
59271;SDS011;45043;51.068;7.026;2022-09-29T12:39:58;4.43;;;3.33;;
59271;SDS011;45043;51.068;7.026;2022-09-29T12:43:16;4.50;;;4.10;;
59271;SDS011;45043;51.068;7.026;2022-09-29T12:46:26;6.57;;;4.07;;
59271;SDS011;45043;51.068;7.026;2022-09-29T12:50:03;4.93;;;3.70;;
59271;SDS011;45043;51.068;7.026;2022-09-29T12:53:11;5.17;;;3.00;;
59271;SDS011;45043;51.068;7.026;2022-09-29T12:56:20;4.70;;;3.47;;
59271;SDS011;45043;51.068;7.026;2022-09-29T13:12:58;3.83;;;3.10;;
59271;SDS011;45043;51.068;7.026;2022-09-29T13:29:49;2.97;;;2.70;;
59271;SDS011;45043;51.068;7.026;2022-09-29T13:33:01;4.13;;;3.13;;
59271;SDS011;45043;51.068;7.026;2022-09-29T13:36:09;4.40;;;2.97;;
59271;SDS011;45043;51.068;7.026;2022-09-29T13:39:25;5.27;;;3.50;;
59271;SDS011;45043;51.068;7.026;2022-09-29T13:45:35;4.40;;;3.50;;
59271;SDS011;45043;51.068;7.026;2022-09-29T13:48:45;3.47;;;3.17;;
59271;SDS011;45043;51.068;7.026;2022-09-29T13:54:51;5.30;;;3.30;;
59271;SDS011;45043;51.068;7.026;2022-09-29T13:57:52;3.77;;;3.27;;
59271;SDS011;45043;51.068;7.026;2022-09-29T14:00:53;4.00;;;3.43;;
59271;SDS011;45043;51.068;7.026;2022-09-29T14:03:55;5.37;;;3.43;;
59271;SDS011;45043;51.068;7.026;2022-09-29T14:06:57;4.37;;;3.07;;
59271;SDS011;45043;51.068;7.026;2022-09-29T14:10:13;5.33;;;3.43;;
59271;SDS011;45043;51.068;7.026;2022-09-29T14:13:19;4.33;;;3.37;;
59271;SDS011;45043;51.068;7.026;2022-09-29T14:20:13;4.70;;;3.10;;
59271;SDS011;45043;51.068;7.026;2022-09-29T14:26:45;4.67;;;4.17;;
59271;SDS011;45043;51.068;7.026;2022-09-29T14:29:56;4.53;;;3.47;;
59271;SDS011;45043;51.068;7.026;2022-09-29T14:33:13;4.00;;;3.50;;
59271;SDS011;45043;51.068;7.026;2022-09-29T14:36:19;5.87;;;3.10;;
59271;SDS011;45043;51.068;7.026;2022-09-29T14:39:23;5.40;;;3.37;;
59271;SDS011;45043;51.068;7.026;2022-09-29T14:42:25;5.03;;;2.70;;
59271;SDS011;45043;51.068;7.026;2022-09-29T14:45:25;4.90;;;3.53;;
59271;SDS011;45043;51.068;7.026;2022-09-29T14:59:34;4.83;;;3.87;;
59271;SDS011;45043;51.068;7.026;2022-09-29T15:02:40;5.63;;;3.77;;
59271;SDS011;45043;51.068;7.026;2022-09-29T15:05:44;6.23;;;4.20;;
59271;SDS011;45043;51.068;7.026;2022-09-29T15:12:26;3.87;;;3.50;;
59271;SDS011;45043;51.068;7.026;2022-09-29T15:15:29;6.07;;;5.53;;
59271;SDS011;45043;51.068;7.026;2022-09-29T15:22:26;6.47;;;5.83;;
59271;SDS011;45043;51.068;7.026;2022-09-29T15:25:33;7.20;;;5.80;;
59271;SDS011;45043;51.068;7.026;2022-09-29T15:28:36;6.33;;;5.73;;
59271;SDS011;45043;51.068;7.026;2022-09-29T15:31:37;6.47;;;6.07;;
59271;SDS011;45043;51.068;7.026;2022-09-29T15:34:38;7.43;;;5.80;;
59271;SDS011;45043;51.068;7.026;2022-09-29T15:38:06;7.23;;;4.97;;
59271;SDS011;45043;51.068;7.026;2022-09-29T15:41:17;6.78;;;5.78;;
59271;SDS011;45043;51.068;7.026;2022-09-29T15:44:19;5.63;;;5.10;;
59271;SDS011;45043;51.068;7.026;2022-09-29T15:47:25;6.20;;;5.70;;
59271;SDS011;45043;51.068;7.026;2022-09-29T15:50:28;4.80;;;4.40;;
59271;SDS011;45043;51.068;7.026;2022-09-29T15:53:31;5.18;;;4.68;;
59271;SDS011;45043;51.068;7.026;2022-09-29T15:56:31;3.75;;;3.30;;
59271;SDS011;45043;51.068;7.026;2022-09-29T15:59:42;6.43;;;5.90;;
59271;SDS011;45043;51.068;7.026;2022-09-29T16:06:28;3.00;;;2.70;;
59271;SDS011;45043;51.068;7.026;2022-09-29T16:09:30;4.07;;;2.70;;
59271;SDS011;45043;51.068;7.026;2022-09-29T16:12:33;6.50;;;5.37;;
59271;SDS011;45043;51.068;7.026;2022-09-29T16:15:43;5.27;;;2.57;;
59271;SDS011;45043;51.068;7.026;2022-09-29T16:18:47;4.97;;;4.57;;
59271;SDS011;45043;51.068;7.026;2022-09-29T16:21:52;9.53;;;8.83;;
59271;SDS011;45043;51.068;7.026;2022-09-29T16:28:25;5.53;;;5.10;;
59271;SDS011;45043;51.068;7.026;2022-09-29T16:31:27;5.03;;;2.43;;
59271;SDS011;45043;51.068;7.026;2022-09-29T16:34:30;6.13;;;2.60;;
59271;SDS011;45043;51.068;7.026;2022-09-29T16:37:32;2.93;;;2.70;;
59271;SDS011;45043;51.068;7.026;2022-09-29T16:40:32;2.83;;;2.50;;
59271;SDS011;45043;51.068;7.026;2022-09-29T16:43:32;6.03;;;4.90;;
59271;SDS011;45043;51.068;7.026;2022-09-29T16:46:39;5.67;;;5.17;;
59271;SDS011;45043;51.068;7.026;2022-09-29T16:52:47;4.20;;;2.80;;
59271;SDS011;45043;51.068;7.026;2022-09-29T16:55:56;4.23;;;2.53;;
59271;SDS011;45043;51.068;7.026;2022-09-29T16:59:08;3.63;;;2.87;;
59271;SDS011;45043;51.068;7.026;2022-09-29T17:02:11;7.10;;;4.80;;
59271;SDS011;45043;51.068;7.026;2022-09-29T17:05:12;4.80;;;3.80;;
59271;SDS011;45043;51.068;7.026;2022-09-29T17:08:14;6.03;;;4.03;;
59271;SDS011;45043;51.068;7.026;2022-09-29T17:11:21;5.30;;;4.13;;
59271;SDS011;45043;51.068;7.026;2022-09-29T17:14:21;6.57;;;5.70;;
59271;SDS011;45043;51.068;7.026;2022-09-29T17:17:24;4.23;;;3.80;;
59271;SDS011;45043;51.068;7.026;2022-09-29T17:20:26;4.97;;;3.33;;
59271;SDS011;45043;51.068;7.026;2022-09-29T17:23:30;6.63;;;4.10;;
59271;SDS011;45043;51.068;7.026;2022-09-29T17:26:39;8.30;;;3.30;;
59271;SDS011;45043;51.068;7.026;2022-09-29T17:30:02;5.67;;;3.20;;
59271;SDS011;45043;51.068;7.026;2022-09-29T17:33:03;4.30;;;3.30;;
59271;SDS011;45043;51.068;7.026;2022-09-29T17:36:04;6.50;;;4.37;;
59271;SDS011;45043;51.068;7.026;2022-09-29T17:39:04;4.63;;;3.27;;
59271;SDS011;45043;51.068;7.026;2022-09-29T17:42:05;4.77;;;2.80;;
59271;SDS011;45043;51.068;7.026;2022-09-29T17:45:06;4.27;;;2.40;;
59271;SDS011;45043;51.068;7.026;2022-09-29T17:48:06;2.63;;;2.30;;
59271;SDS011;45043;51.068;7.026;2022-09-29T17:51:09;5.17;;;2.40;;
59271;SDS011;45043;51.068;7.026;2022-09-29T17:54:12;3.53;;;2.53;;
59271;SDS011;45043;51.068;7.026;2022-09-29T17:57:33;5.23;;;2.40;;
59271;SDS011;45043;51.068;7.026;2022-09-29T18:00:34;3.93;;;2.40;;
59271;SDS011;45043;51.068;7.026;2022-09-29T18:03:37;9.73;;;4.87;;
59271;SDS011;45043;51.068;7.026;2022-09-29T18:06:37;8.03;;;5.90;;
59271;SDS011;45043;51.068;7.026;2022-09-29T18:09:39;6.37;;;4.97;;
59271;SDS011;45043;51.068;7.026;2022-09-29T18:12:40;8.07;;;5.40;;
59271;SDS011;45043;51.068;7.026;2022-09-29T18:15:41;6.97;;;5.57;;
59271;SDS011;45043;51.068;7.026;2022-09-29T18:18:42;8.83;;;5.37;;
59271;SDS011;45043;51.068;7.026;2022-09-29T18:21:44;7.17;;;5.27;;
59271;SDS011;45043;51.068;7.026;2022-09-29T18:24:44;12.93;;;7.27;;
59271;SDS011;45043;51.068;7.026;2022-09-29T18:27:45;11.30;;;7.20;;
59271;SDS011;45043;51.068;7.026;2022-09-29T18:30:48;8.97;;;6.47;;
59271;SDS011;45043;51.068;7.026;2022-09-29T18:33:51;8.10;;;6.70;;
59271;SDS011;45043;51.068;7.026;2022-09-29T18:36:52;8.73;;;6.83;;
59271;SDS011;45043;51.068;7.026;2022-09-29T18:39:52;7.90;;;6.57;;
59271;SDS011;45043;51.068;7.026;2022-09-29T18:42:53;8.53;;;6.27;;
59271;SDS011;45043;51.068;7.026;2022-09-29T18:45:56;9.33;;;6.90;;
59271;SDS011;45043;51.068;7.026;2022-09-29T18:48:58;8.10;;;7.20;;
59271;SDS011;45043;51.068;7.026;2022-09-29T18:51:58;7.47;;;6.27;;
59271;SDS011;45043;51.068;7.026;2022-09-29T18:54:59;12.57;;;8.63;;
59271;SDS011;45043;51.068;7.026;2022-09-29T18:58:00;7.37;;;6.53;;
59271;SDS011;45043;51.068;7.026;2022-09-29T19:01:00;7.53;;;6.70;;
59271;SDS011;45043;51.068;7.026;2022-09-29T19:04:01;7.70;;;6.50;;
59271;SDS011;45043;51.068;7.026;2022-09-29T19:07:02;12.47;;;7.97;;
59271;SDS011;45043;51.068;7.026;2022-09-29T19:10:08;9.30;;;6.77;;
59271;SDS011;45043;51.068;7.026;2022-09-29T19:13:09;8.60;;;6.80;;
59271;SDS011;45043;51.068;7.026;2022-09-29T19:16:14;9.23;;;7.23;;
59271;SDS011;45043;51.068;7.026;2022-09-29T19:19:15;9.03;;;7.00;;
59271;SDS011;45043;51.068;7.026;2022-09-29T19:22:16;9.27;;;8.00;;
59271;SDS011;45043;51.068;7.026;2022-09-29T19:25:19;10.87;;;9.10;;
59271;SDS011;45043;51.068;7.026;2022-09-29T19:28:25;10.80;;;9.33;;
59271;SDS011;45043;51.068;7.026;2022-09-29T19:31:26;11.97;;;10.77;;
59271;SDS011;45043;51.068;7.026;2022-09-29T19:34:26;11.67;;;10.30;;
59271;SDS011;45043;51.068;7.026;2022-09-29T19:37:30;11.00;;;9.83;;
59271;SDS011;45043;51.068;7.026;2022-09-29T19:40:32;10.80;;;8.67;;
59271;SDS011;45043;51.068;7.026;2022-09-29T19:43:33;12.53;;;8.60;;
59271;SDS011;45043;51.068;7.026;2022-09-29T19:46:34;12.47;;;8.27;;
59271;SDS011;45043;51.068;7.026;2022-09-29T19:49:35;17.53;;;13.70;;
59271;SDS011;45043;51.068;7.026;2022-09-29T19:52:35;15.37;;;10.60;;
59271;SDS011;45043;51.068;7.026;2022-09-29T19:55:36;13.20;;;10.53;;
59271;SDS011;45043;51.068;7.026;2022-09-29T19:58:38;11.40;;;8.53;;
59271;SDS011;45043;51.068;7.026;2022-09-29T20:01:39;9.70;;;8.10;;
59271;SDS011;45043;51.068;7.026;2022-09-29T20:04:41;10.33;;;8.30;;
59271;SDS011;45043;51.068;7.026;2022-09-29T20:07:42;8.20;;;6.83;;
59271;SDS011;45043;51.068;7.026;2022-09-29T20:10:43;8.37;;;6.80;;
59271;SDS011;45043;51.068;7.026;2022-09-29T20:13:44;11.37;;;6.97;;
59271;SDS011;45043;51.068;7.026;2022-09-29T20:16:44;8.30;;;6.67;;
59271;SDS011;45043;51.068;7.026;2022-09-29T20:19:45;8.17;;;6.40;;
59271;SDS011;45043;51.068;7.026;2022-09-29T20:22:46;10.80;;;6.97;;
59271;SDS011;45043;51.068;7.026;2022-09-29T20:25:47;12.63;;;8.30;;
59271;SDS011;45043;51.068;7.026;2022-09-29T20:28:48;8.50;;;7.37;;
59271;SDS011;45043;51.068;7.026;2022-09-29T20:31:48;10.63;;;7.30;;
59271;SDS011;45043;51.068;7.026;2022-09-29T20:34:49;10.90;;;8.27;;
59271;SDS011;45043;51.068;7.026;2022-09-29T20:37:49;8.73;;;7.40;;
59271;SDS011;45043;51.068;7.026;2022-09-29T20:40:50;11.17;;;6.80;;
59271;SDS011;45043;51.068;7.026;2022-09-29T20:43:51;10.83;;;7.87;;
59271;SDS011;45043;51.068;7.026;2022-09-29T20:46:53;10.83;;;8.67;;
59271;SDS011;45043;51.068;7.026;2022-09-29T20:49:55;12.17;;;8.73;;
59271;SDS011;45043;51.068;7.026;2022-09-29T20:52:55;10.37;;;7.57;;
59271;SDS011;45043;51.068;7.026;2022-09-29T20:56:00;14.77;;;8.97;;
59271;SDS011;45043;51.068;7.026;2022-09-29T20:59:01;12.13;;;8.37;;
59271;SDS011;45043;51.068;7.026;2022-09-29T21:02:02;10.37;;;8.47;;
59271;SDS011;45043;51.068;7.026;2022-09-29T21:05:03;7.40;;;6.50;;